sensor_id;sensor_type;location;lat;lon;timestamp;P1;durP1;ratioP1;P2;durP2;ratioP2
40058;SDS011;25763;49.972;8.568;2022-08-19T00:02:04;29.75;;;28.15;;
40058;SDS011;25763;49.972;8.568;2022-08-19T00:04:30;25.95;;;24.55;;
40058;SDS011;25763;49.972;8.568;2022-08-19T00:06:58;24.58;;;23.08;;
40058;SDS011;25763;49.972;8.568;2022-08-19T00:09:24;24.27;;;22.88;;
40058;SDS011;25763;49.972;8.568;2022-08-19T00:11:50;31.88;;;30.17;;
40058;SDS011;25763;49.972;8.568;2022-08-19T00:14:16;25.60;;;24.20;;
40058;SDS011;25763;49.972;8.568;2022-08-19T00:16:44;31.33;;;29.60;;
40058;SDS011;25763;49.972;8.568;2022-08-19T00:19:11;32.83;;;31.05;;
40058;SDS011;25763;49.972;8.568;2022-08-19T00:21:37;32.35;;;30.42;;
40058;SDS011;25763;49.972;8.568;2022-08-19T00:24:04;40.88;;;38.78;;
40058;SDS011;25763;49.972;8.568;2022-08-19T00:26:33;41.78;;;39.53;;
40058;SDS011;25763;49.972;8.568;2022-08-19T00:28:59;39.85;;;37.67;;
40058;SDS011;25763;49.972;8.568;2022-08-19T00:31:26;40.65;;;38.45;;
40058;SDS011;25763;49.972;8.568;2022-08-19T00:33:53;37.33;;;35.38;;
40058;SDS011;25763;49.972;8.568;2022-08-19T00:36:18;37.42;;;34.97;;
40058;SDS011;25763;49.972;8.568;2022-08-19T00:38:44;34.00;;;32.00;;
40058;SDS011;25763;49.972;8.568;2022-08-19T00:41:10;36.53;;;34.42;;
40058;SDS011;25763;49.972;8.568;2022-08-19T00:43:38;38.30;;;36.20;;
40058;SDS011;25763;49.972;8.568;2022-08-19T00:46:04;31.73;;;30.00;;
40058;SDS011;25763;49.972;8.568;2022-08-19T00:48:29;34.17;;;32.28;;
40058;SDS011;25763;49.972;8.568;2022-08-19T00:50:56;32.08;;;30.33;;
40058;SDS011;25763;49.972;8.568;2022-08-19T00:53:24;36.65;;;34.65;;
40058;SDS011;25763;49.972;8.568;2022-08-19T00:55:52;41.17;;;39.00;;
40058;SDS011;25763;49.972;8.568;2022-08-19T00:58:20;35.22;;;32.83;;
40058;SDS011;25763;49.972;8.568;2022-08-19T01:00:49;36.28;;;34.25;;
40058;SDS011;25763;49.972;8.568;2022-08-19T01:03:17;32.75;;;30.88;;
40058;SDS011;25763;49.972;8.568;2022-08-19T01:05:44;37.25;;;35.25;;
40058;SDS011;25763;49.972;8.568;2022-08-19T01:08:11;30.23;;;28.52;;
40058;SDS011;25763;49.972;8.568;2022-08-19T01:10:43;25.35;;;23.88;;
40058;SDS011;25763;49.972;8.568;2022-08-19T01:13:15;22.75;;;21.45;;
40058;SDS011;25763;49.972;8.568;2022-08-19T01:15:52;25.38;;;23.95;;
40058;SDS011;25763;49.972;8.568;2022-08-19T01:18:22;23.95;;;22.60;;
40058;SDS011;25763;49.972;8.568;2022-08-19T01:20:49;24.38;;;22.98;;
40058;SDS011;25763;49.972;8.568;2022-08-19T01:23:16;21.40;;;20.20;;
40058;SDS011;25763;49.972;8.568;2022-08-19T01:25:46;29.80;;;28.15;;
40058;SDS011;25763;49.972;8.568;2022-08-19T01:28:21;26.75;;;25.27;;
40058;SDS011;25763;49.972;8.568;2022-08-19T01:30:53;26.48;;;24.98;;
40058;SDS011;25763;49.972;8.568;2022-08-19T01:33:20;31.30;;;29.55;;
40058;SDS011;25763;49.972;8.568;2022-08-19T01:35:46;27.77;;;26.08;;
40058;SDS011;25763;49.972;8.568;2022-08-19T01:40:49;23.63;;;22.33;;
40058;SDS011;25763;49.972;8.568;2022-08-19T01:43:15;23.70;;;22.40;;
40058;SDS011;25763;49.972;8.568;2022-08-19T01:45:40;27.38;;;25.77;;
40058;SDS011;25763;49.972;8.568;2022-08-19T01:48:06;22.90;;;21.60;;
40058;SDS011;25763;49.972;8.568;2022-08-19T01:50:33;25.67;;;24.27;;
40058;SDS011;25763;49.972;8.568;2022-08-19T01:53:00;25.17;;;23.63;;
40058;SDS011;25763;49.972;8.568;2022-08-19T01:55:28;25.85;;;24.35;;
40058;SDS011;25763;49.972;8.568;2022-08-19T01:57:56;22.85;;;21.55;;
40058;SDS011;25763;49.972;8.568;2022-08-19T02:00:25;23.30;;;22.00;;
40058;SDS011;25763;49.972;8.568;2022-08-19T02:02:54;25.40;;;24.00;;
40058;SDS011;25763;49.972;8.568;2022-08-19T02:05:19;22.17;;;20.95;;
40058;SDS011;25763;49.972;8.568;2022-08-19T02:07:46;27.92;;;26.40;;
40058;SDS011;25763;49.972;8.568;2022-08-19T02:10:13;27.95;;;26.38;;
40058;SDS011;25763;49.972;8.568;2022-08-19T02:12:42;25.92;;;24.52;;
40058;SDS011;25763;49.972;8.568;2022-08-19T02:15:07;29.10;;;27.48;;
40058;SDS011;25763;49.972;8.568;2022-08-19T02:17:33;27.40;;;25.90;;
40058;SDS011;25763;49.972;8.568;2022-08-19T02:19:59;32.38;;;30.63;;
40058;SDS011;25763;49.972;8.568;2022-08-19T02:22:25;32.20;;;30.40;;
40058;SDS011;25763;49.972;8.568;2022-08-19T02:24:54;38.30;;;36.20;;
40058;SDS011;25763;49.972;8.568;2022-08-19T02:27:20;40.55;;;38.40;;
40058;SDS011;25763;49.972;8.568;2022-08-19T02:29:47;35.72;;;33.75;;
40058;SDS011;25763;49.972;8.568;2022-08-19T02:32:14;37.33;;;35.30;;
40058;SDS011;25763;49.972;8.568;2022-08-19T02:34:39;32.75;;;30.95;;
40058;SDS011;25763;49.972;8.568;2022-08-19T02:37:05;36.97;;;34.80;;
40058;SDS011;25763;49.972;8.568;2022-08-19T02:39:31;40.72;;;38.53;;
40058;SDS011;25763;49.972;8.568;2022-08-19T02:41:56;35.67;;;33.70;;
40058;SDS011;25763;49.972;8.568;2022-08-19T02:44:24;29.67;;;28.08;;
40058;SDS011;25763;49.972;8.568;2022-08-19T02:46:50;39.92;;;37.67;;
40058;SDS011;25763;49.972;8.568;2022-08-19T02:49:16;35.75;;;33.88;;
40058;SDS011;25763;49.972;8.568;2022-08-19T02:51:42;45.00;;;42.53;;
40058;SDS011;25763;49.972;8.568;2022-08-19T02:54:10;39.17;;;37.10;;
40058;SDS011;25763;49.972;8.568;2022-08-19T02:56:38;43.47;;;41.08;;
40058;SDS011;25763;49.972;8.568;2022-08-19T02:59:06;39.40;;;37.25;;
40058;SDS011;25763;49.972;8.568;2022-08-19T03:01:34;38.55;;;36.53;;
40058;SDS011;25763;49.972;8.568;2022-08-19T03:04:02;32.60;;;30.67;;
40058;SDS011;25763;49.972;8.568;2022-08-19T03:06:30;39.00;;;36.95;;
40058;SDS011;25763;49.972;8.568;2022-08-19T03:08:56;40.40;;;38.30;;
40058;SDS011;25763;49.972;8.568;2022-08-19T03:11:26;38.28;;;36.03;;
40058;SDS011;25763;49.972;8.568;2022-08-19T03:13:54;45.25;;;42.88;;
40058;SDS011;25763;49.972;8.568;2022-08-19T03:16:20;40.20;;;37.90;;
40058;SDS011;25763;49.972;8.568;2022-08-19T03:18:48;45.20;;;42.85;;
40058;SDS011;25763;49.972;8.568;2022-08-19T03:21:15;49.55;;;46.70;;
40058;SDS011;25763;49.972;8.568;2022-08-19T03:23:45;40.10;;;37.95;;
40058;SDS011;25763;49.972;8.568;2022-08-19T03:26:11;39.38;;;37.30;;
40058;SDS011;25763;49.972;8.568;2022-08-19T03:28:37;46.58;;;43.90;;
40058;SDS011;25763;49.972;8.568;2022-08-19T03:31:06;41.53;;;39.30;;
40058;SDS011;25763;49.972;8.568;2022-08-19T03:33:34;46.90;;;44.38;;
40058;SDS011;25763;49.972;8.568;2022-08-19T03:38:26;44.10;;;41.80;;
40058;SDS011;25763;49.972;8.568;2022-08-19T03:40:51;44.88;;;42.50;;
40058;SDS011;25763;49.972;8.568;2022-08-19T03:43:16;47.30;;;44.67;;
40058;SDS011;25763;49.972;8.568;2022-08-19T03:45:42;44.50;;;42.20;;
40058;SDS011;25763;49.972;8.568;2022-08-19T03:48:08;44.95;;;42.53;;
40058;SDS011;25763;49.972;8.568;2022-08-19T03:50:33;41.97;;;39.70;;
40058;SDS011;25763;49.972;8.568;2022-08-19T03:53:04;43.22;;;41.00;;
40058;SDS011;25763;49.972;8.568;2022-08-19T03:55:29;45.03;;;42.63;;
40058;SDS011;25763;49.972;8.568;2022-08-19T03:57:55;48.58;;;46.08;;
40058;SDS011;25763;49.972;8.568;2022-08-19T04:00:21;55.65;;;52.58;;
40058;SDS011;25763;49.972;8.568;2022-08-19T04:02:46;54.72;;;51.88;;
40058;SDS011;25763;49.972;8.568;2022-08-19T04:05:12;52.72;;;50.03;;
40058;SDS011;25763;49.972;8.568;2022-08-19T04:07:39;50.47;;;47.85;;
40058;SDS011;25763;49.972;8.568;2022-08-19T04:10:04;48.03;;;45.53;;
40058;SDS011;25763;49.972;8.568;2022-08-19T04:12:30;47.65;;;45.17;;
40058;SDS011;25763;49.972;8.568;2022-08-19T04:14:55;48.53;;;45.95;;
40058;SDS011;25763;49.972;8.568;2022-08-19T04:17:21;43.22;;;40.95;;
40058;SDS011;25763;49.972;8.568;2022-08-19T04:19:47;47.30;;;44.88;;
40058;SDS011;25763;49.972;8.568;2022-08-19T04:22:12;41.03;;;38.85;;
40058;SDS011;25763;49.972;8.568;2022-08-19T04:24:37;43.55;;;41.08;;
40058;SDS011;25763;49.972;8.568;2022-08-19T04:27:03;39.58;;;37.50;;
40058;SDS011;25763;49.972;8.568;2022-08-19T04:29:31;38.22;;;36.22;;
40058;SDS011;25763;49.972;8.568;2022-08-19T04:31:57;40.33;;;38.20;;
40058;SDS011;25763;49.972;8.568;2022-08-19T04:34:24;38.45;;;36.17;;
40058;SDS011;25763;49.972;8.568;2022-08-19T04:36:51;40.28;;;38.13;;
40058;SDS011;25763;49.972;8.568;2022-08-19T04:39:22;40.42;;;38.28;;
40058;SDS011;25763;49.972;8.568;2022-08-19T04:42:10;35.95;;;34.03;;
40058;SDS011;25763;49.972;8.568;2022-08-19T04:44:55;36.60;;;34.60;;
40058;SDS011;25763;49.972;8.568;2022-08-19T04:47:20;37.72;;;35.67;;
40058;SDS011;25763;49.972;8.568;2022-08-19T04:49:46;41.45;;;39.22;;
40058;SDS011;25763;49.972;8.568;2022-08-19T04:52:11;44.78;;;42.20;;
40058;SDS011;25763;49.972;8.568;2022-08-19T04:54:36;44.20;;;41.85;;
40058;SDS011;25763;49.972;8.568;2022-08-19T04:57:02;39.75;;;37.70;;
40058;SDS011;25763;49.972;8.568;2022-08-19T04:59:28;50.28;;;47.63;;
40058;SDS011;25763;49.972;8.568;2022-08-19T05:01:53;44.20;;;41.55;;
40058;SDS011;25763;49.972;8.568;2022-08-19T05:04:19;42.30;;;40.10;;
40058;SDS011;25763;49.972;8.568;2022-08-19T05:06:46;45.60;;;43.28;;
40058;SDS011;25763;49.972;8.568;2022-08-19T05:09:13;45.67;;;43.28;;
40058;SDS011;25763;49.972;8.568;2022-08-19T05:11:39;43.60;;;41.33;;
40058;SDS011;25763;49.972;8.568;2022-08-19T05:14:05;43.67;;;41.33;;
40058;SDS011;25763;49.972;8.568;2022-08-19T05:16:30;44.30;;;42.00;;
40058;SDS011;25763;49.972;8.568;2022-08-19T05:18:56;49.13;;;46.63;;
40058;SDS011;25763;49.972;8.568;2022-08-19T05:21:40;39.70;;;37.58;;
40058;SDS011;25763;49.972;8.568;2022-08-19T05:24:26;39.85;;;37.70;;
40058;SDS011;25763;49.972;8.568;2022-08-19T05:26:52;47.47;;;45.00;;
40058;SDS011;25763;49.972;8.568;2022-08-19T05:29:22;48.47;;;45.85;;
40058;SDS011;25763;49.972;8.568;2022-08-19T05:31:49;51.45;;;48.80;;
40058;SDS011;25763;49.972;8.568;2022-08-19T05:34:16;55.30;;;52.38;;
40058;SDS011;25763;49.972;8.568;2022-08-19T05:36:43;52.97;;;50.30;;
40058;SDS011;25763;49.972;8.568;2022-08-19T05:39:13;61.60;;;58.25;;
40058;SDS011;25763;49.972;8.568;2022-08-19T05:41:44;66.38;;;62.85;;
40058;SDS011;25763;49.972;8.568;2022-08-19T05:44:12;59.95;;;56.72;;
40058;SDS011;25763;49.972;8.568;2022-08-19T05:46:37;60.08;;;56.85;;
40058;SDS011;25763;49.972;8.568;2022-08-19T05:49:07;53.95;;;51.20;;
40058;SDS011;25763;49.972;8.568;2022-08-19T05:51:33;57.90;;;54.90;;
40058;SDS011;25763;49.972;8.568;2022-08-19T05:54:01;59.95;;;56.90;;
40058;SDS011;25763;49.972;8.568;2022-08-19T05:56:27;58.47;;;55.50;;
40058;SDS011;25763;49.972;8.568;2022-08-19T05:58:55;68.05;;;64.53;;
40058;SDS011;25763;49.972;8.568;2022-08-19T06:01:20;62.28;;;58.85;;
40058;SDS011;25763;49.972;8.568;2022-08-19T06:03:46;66.20;;;62.65;;
40058;SDS011;25763;49.972;8.568;2022-08-19T06:06:13;63.72;;;60.47;;
40058;SDS011;25763;49.972;8.568;2022-08-19T06:08:40;65.63;;;62.28;;
40058;SDS011;25763;49.972;8.568;2022-08-19T06:11:53;63.92;;;60.58;;
40058;SDS011;25763;49.972;8.568;2022-08-19T06:14:00;66.85;;;63.45;;
40058;SDS011;25763;49.972;8.568;2022-08-19T06:16:28;61.57;;;58.40;;
40058;SDS011;25763;49.972;8.568;2022-08-19T06:18:57;63.22;;;59.90;;
40058;SDS011;25763;49.972;8.568;2022-08-19T06:21:26;65.55;;;62.28;;
40058;SDS011;25763;49.972;8.568;2022-08-19T06:23:53;63.45;;;60.28;;
40058;SDS011;25763;49.972;8.568;2022-08-19T06:26:19;63.55;;;60.30;;
40058;SDS011;25763;49.972;8.568;2022-08-19T06:28:46;82.45;;;78.22;;
40058;SDS011;25763;49.972;8.568;2022-08-19T06:31:19;42.25;;;40.00;;
40058;SDS011;25763;49.972;8.568;2022-08-19T06:33:50;43.60;;;41.15;;
40058;SDS011;25763;49.972;8.568;2022-08-19T06:36:17;28.92;;;27.23;;
40058;SDS011;25763;49.972;8.568;2022-08-19T06:38:42;25.92;;;24.50;;
40058;SDS011;25763;49.972;8.568;2022-08-19T06:41:08;30.27;;;28.67;;
40058;SDS011;25763;49.972;8.568;2022-08-19T06:43:34;28.05;;;26.55;;
40058;SDS011;25763;49.972;8.568;2022-08-19T06:46:01;28.95;;;27.42;;
40058;SDS011;25763;49.972;8.568;2022-08-19T06:48:28;25.60;;;24.20;;
40058;SDS011;25763;49.972;8.568;2022-08-19T06:50:54;25.27;;;23.88;;
40058;SDS011;25763;49.972;8.568;2022-08-19T06:53:19;28.75;;;26.92;;
40058;SDS011;25763;49.972;8.568;2022-08-19T06:55:45;30.08;;;28.48;;
40058;SDS011;25763;49.972;8.568;2022-08-19T06:58:10;63.70;;;60.42;;
40058;SDS011;25763;49.972;8.568;2022-08-19T07:00:36;24.10;;;22.77;;
40058;SDS011;25763;49.972;8.568;2022-08-19T07:03:02;22.52;;;21.23;;
40058;SDS011;25763;49.972;8.568;2022-08-19T07:05:27;24.42;;;23.02;;
40058;SDS011;25763;49.972;8.568;2022-08-19T07:07:53;21.15;;;19.95;;
40058;SDS011;25763;49.972;8.568;2022-08-19T07:10:18;23.42;;;22.13;;
40058;SDS011;25763;49.972;8.568;2022-08-19T07:12:44;16.20;;;15.20;;
40058;SDS011;25763;49.972;8.568;2022-08-19T07:15:09;21.02;;;19.85;;
40058;SDS011;25763;49.972;8.568;2022-08-19T07:17:36;20.98;;;19.77;;
40058;SDS011;25763;49.972;8.568;2022-08-19T07:20:04;14.27;;;13.38;;
40058;SDS011;25763;49.972;8.568;2022-08-19T07:22:32;19.42;;;18.30;;
40058;SDS011;25763;49.972;8.568;2022-08-19T07:24:59;16.45;;;15.45;;
40058;SDS011;25763;49.972;8.568;2022-08-19T07:27:24;17.92;;;16.92;;
40058;SDS011;25763;49.972;8.568;2022-08-19T07:29:50;14.27;;;13.38;;
40058;SDS011;25763;49.972;8.568;2022-08-19T07:32:16;13.77;;;12.88;;
40058;SDS011;25763;49.972;8.568;2022-08-19T07:34:42;16.30;;;15.35;;
40058;SDS011;25763;49.972;8.568;2022-08-19T07:37:07;15.15;;;14.25;;
40058;SDS011;25763;49.972;8.568;2022-08-19T07:39:33;16.13;;;15.02;;
40058;SDS011;25763;49.972;8.568;2022-08-19T07:42:01;13.18;;;12.38;;
40058;SDS011;25763;49.972;8.568;2022-08-19T07:46:56;15.50;;;14.60;;
40058;SDS011;25763;49.972;8.568;2022-08-19T07:49:22;13.48;;;12.68;;
40058;SDS011;25763;49.972;8.568;2022-08-19T07:51:49;16.73;;;15.65;;
40058;SDS011;25763;49.972;8.568;2022-08-19T07:54:18;12.57;;;11.77;;
40058;SDS011;25763;49.972;8.568;2022-08-19T07:56:44;15.15;;;14.25;;
40058;SDS011;25763;49.972;8.568;2022-08-19T07:59:10;15.80;;;14.90;;
40058;SDS011;25763;49.972;8.568;2022-08-19T08:01:36;17.00;;;16.05;;
40058;SDS011;25763;49.972;8.568;2022-08-19T08:04:04;21.65;;;20.45;;
40058;SDS011;25763;49.972;8.568;2022-08-19T08:06:49;31.10;;;29.50;;
40058;SDS011;25763;49.972;8.568;2022-08-19T08:09:36;18.52;;;17.48;;
40058;SDS011;25763;49.972;8.568;2022-08-19T08:12:04;18.00;;;17.00;;
40058;SDS011;25763;49.972;8.568;2022-08-19T08:14:37;12.07;;;11.38;;
40058;SDS011;25763;49.972;8.568;2022-08-19T08:17:05;21.02;;;19.77;;
40058;SDS011;25763;49.972;8.568;2022-08-19T08:19:31;9.55;;;8.95;;
40058;SDS011;25763;49.972;8.568;2022-08-19T08:21:58;9.57;;;8.98;;
40058;SDS011;25763;49.972;8.568;2022-08-19T08:24:25;9.95;;;9.35;;
40058;SDS011;25763;49.972;8.568;2022-08-19T08:26:52;11.23;;;10.52;;
40058;SDS011;25763;49.972;8.568;2022-08-19T08:29:18;10.65;;;9.95;;
40058;SDS011;25763;49.972;8.568;2022-08-19T08:31:44;7.88;;;7.38;;
40058;SDS011;25763;49.972;8.568;2022-08-19T08:34:10;10.55;;;9.85;;
40058;SDS011;25763;49.972;8.568;2022-08-19T08:36:41;9.07;;;8.48;;
40058;SDS011;25763;49.972;8.568;2022-08-19T08:39:10;9.02;;;8.43;;
40058;SDS011;25763;49.972;8.568;2022-08-19T08:47:03;13.90;;;13.10;;
40058;SDS011;25763;49.972;8.568;2022-08-19T08:49:41;9.77;;;9.18;;
40058;SDS011;25763;49.972;8.568;2022-08-19T08:52:25;15.65;;;14.68;;
40058;SDS011;25763;49.972;8.568;2022-08-19T08:54:54;12.70;;;11.90;;
40058;SDS011;25763;49.972;8.568;2022-08-19T08:57:27;11.02;;;10.32;;
40058;SDS011;25763;49.972;8.568;2022-08-19T08:59:57;14.98;;;14.10;;
40058;SDS011;25763;49.972;8.568;2022-08-19T09:02:27;14.57;;;13.70;;
40058;SDS011;25763;49.972;8.568;2022-08-19T09:04:53;21.65;;;20.35;;
40058;SDS011;25763;49.972;8.568;2022-08-19T09:07:25;10.07;;;9.38;;
40058;SDS011;25763;49.972;8.568;2022-08-19T09:10:10;11.10;;;10.40;;
40058;SDS011;25763;49.972;8.568;2022-08-19T09:15:52;12.20;;;11.50;;
40058;SDS011;25763;49.972;8.568;2022-08-19T09:18:21;13.80;;;13.00;;
40058;SDS011;25763;49.972;8.568;2022-08-19T09:20:47;12.45;;;11.65;;
40058;SDS011;25763;49.972;8.568;2022-08-19T09:23:12;12.73;;;11.93;;
40058;SDS011;25763;49.972;8.568;2022-08-19T09:25:38;12.93;;;12.13;;
40058;SDS011;25763;49.972;8.568;2022-08-19T09:28:05;12.93;;;12.13;;
40058;SDS011;25763;49.972;8.568;2022-08-19T09:30:32;16.30;;;15.40;;
40058;SDS011;25763;49.972;8.568;2022-08-19T09:32:59;23.08;;;21.77;;
40058;SDS011;25763;49.972;8.568;2022-08-19T09:35:26;11.10;;;10.40;;
40058;SDS011;25763;49.972;8.568;2022-08-19T09:37:53;38.28;;;36.28;;
40058;SDS011;25763;49.972;8.568;2022-08-19T09:40:20;41.05;;;38.95;;
40058;SDS011;25763;49.972;8.568;2022-08-19T09:42:45;25.05;;;23.70;;
40058;SDS011;25763;49.972;8.568;2022-08-19T09:45:12;22.90;;;21.70;;
40058;SDS011;25763;49.972;8.568;2022-08-19T09:47:39;13.20;;;12.43;;
40058;SDS011;25763;49.972;8.568;2022-08-19T09:50:05;13.88;;;13.07;;
40058;SDS011;25763;49.972;8.568;2022-08-19T09:52:32;16.98;;;15.98;;
40058;SDS011;25763;49.972;8.568;2022-08-19T09:54:58;26.38;;;24.98;;
40058;SDS011;25763;49.972;8.568;2022-08-19T09:57:24;14.85;;;14.00;;
40058;SDS011;25763;49.972;8.568;2022-08-19T09:59:49;11.88;;;11.18;;
40058;SDS011;25763;49.972;8.568;2022-08-19T10:02:14;20.75;;;19.55;;
40058;SDS011;25763;49.972;8.568;2022-08-19T10:04:40;11.50;;;10.80;;
40058;SDS011;25763;49.972;8.568;2022-08-19T10:07:24;15.07;;;14.23;;
40058;SDS011;25763;49.972;8.568;2022-08-19T10:09:49;31.75;;;30.05;;
40058;SDS011;25763;49.972;8.568;2022-08-19T10:12:15;20.02;;;18.73;;
40058;SDS011;25763;49.972;8.568;2022-08-19T10:14:40;13.95;;;13.15;;
40058;SDS011;25763;49.972;8.568;2022-08-19T10:17:06;16.80;;;15.80;;
40058;SDS011;25763;49.972;8.568;2022-08-19T10:19:31;24.23;;;22.60;;
40058;SDS011;25763;49.972;8.568;2022-08-19T10:22:02;32.57;;;30.87;;
40058;SDS011;25763;49.972;8.568;2022-08-19T10:24:29;31.90;;;30.17;;
40058;SDS011;25763;49.972;8.568;2022-08-19T10:26:55;34.05;;;32.25;;
40058;SDS011;25763;49.972;8.568;2022-08-19T10:29:22;34.45;;;32.60;;
40058;SDS011;25763;49.972;8.568;2022-08-19T10:31:47;20.63;;;19.50;;
40058;SDS011;25763;49.972;8.568;2022-08-19T10:34:13;37.45;;;35.53;;
40058;SDS011;25763;49.972;8.568;2022-08-19T10:36:38;22.23;;;20.98;;
40058;SDS011;25763;49.972;8.568;2022-08-19T10:39:06;55.28;;;52.42;;
40058;SDS011;25763;49.972;8.568;2022-08-19T10:41:34;59.58;;;56.28;;
40058;SDS011;25763;49.972;8.568;2022-08-19T10:44:02;65.78;;;62.47;;
40058;SDS011;25763;49.972;8.568;2022-08-19T10:46:30;27.85;;;26.38;;
40058;SDS011;25763;49.972;8.568;2022-08-19T10:48:58;56.28;;;53.38;;
40058;SDS011;25763;49.972;8.568;2022-08-19T10:51:24;70.45;;;66.88;;
40058;SDS011;25763;49.972;8.568;2022-08-19T10:54:09;55.92;;;53.13;;
40058;SDS011;25763;49.972;8.568;2022-08-19T10:56:35;62.40;;;59.30;;
40058;SDS011;25763;49.972;8.568;2022-08-19T10:59:16;59.25;;;56.25;;
40058;SDS011;25763;49.972;8.568;2022-08-19T11:01:47;63.72;;;60.53;;
40058;SDS011;25763;49.972;8.568;2022-08-19T11:04:13;56.35;;;53.50;;
40058;SDS011;25763;49.972;8.568;2022-08-19T11:06:40;48.53;;;45.92;;
40058;SDS011;25763;49.972;8.568;2022-08-19T11:09:07;50.72;;;48.17;;
40058;SDS011;25763;49.972;8.568;2022-08-19T11:11:33;53.85;;;51.13;;
40058;SDS011;25763;49.972;8.568;2022-08-19T11:14:04;67.13;;;63.78;;
40058;SDS011;25763;49.972;8.568;2022-08-19T11:16:30;47.03;;;44.63;;
40058;SDS011;25763;49.972;8.568;2022-08-19T11:18:57;57.40;;;54.50;;
40058;SDS011;25763;49.972;8.568;2022-08-19T11:21:25;56.10;;;53.25;;
40058;SDS011;25763;49.972;8.568;2022-08-19T11:23:58;79.78;;;75.78;;
40058;SDS011;25763;49.972;8.568;2022-08-19T11:26:26;108.32;;;102.90;;
40058;SDS011;25763;49.972;8.568;2022-08-19T11:28:53;100.28;;;95.20;;
40058;SDS011;25763;49.972;8.568;2022-08-19T11:31:23;108.07;;;102.72;;
40058;SDS011;25763;49.972;8.568;2022-08-19T11:33:51;109.75;;;104.20;;
40058;SDS011;25763;49.972;8.568;2022-08-19T11:36:19;145.90;;;138.60;;
40058;SDS011;25763;49.972;8.568;2022-08-19T11:38:46;118.70;;;112.78;;
40058;SDS011;25763;49.972;8.568;2022-08-19T11:41:13;116.43;;;110.72;;
40058;SDS011;25763;49.972;8.568;2022-08-19T11:43:39;93.80;;;89.15;;
40058;SDS011;25763;49.972;8.568;2022-08-19T11:46:09;129.02;;;122.55;;
40058;SDS011;25763;49.972;8.568;2022-08-19T11:48:36;166.50;;;158.27;;
40058;SDS011;25763;49.972;8.568;2022-08-19T11:51:04;150.23;;;142.80;;
40058;SDS011;25763;49.972;8.568;2022-08-19T11:53:34;180.05;;;171.18;;
40058;SDS011;25763;49.972;8.568;2022-08-19T11:56:01;174.60;;;166.02;;
40058;SDS011;25763;49.972;8.568;2022-08-19T11:58:26;174.18;;;165.57;;
40058;SDS011;25763;49.972;8.568;2022-08-19T12:00:51;174.35;;;165.65;;
40058;SDS011;25763;49.972;8.568;2022-08-19T12:03:17;157.85;;;150.02;;
40058;SDS011;25763;49.972;8.568;2022-08-19T12:05:44;166.93;;;158.70;;
40058;SDS011;25763;49.972;8.568;2022-08-19T12:08:10;171.77;;;163.27;;
40058;SDS011;25763;49.972;8.568;2022-08-19T12:10:37;132.82;;;126.22;;
40058;SDS011;25763;49.972;8.568;2022-08-19T12:13:04;151.77;;;144.25;;
40058;SDS011;25763;49.972;8.568;2022-08-19T12:15:29;181.80;;;172.85;;
40058;SDS011;25763;49.972;8.568;2022-08-19T12:17:55;174.50;;;165.93;;
40058;SDS011;25763;49.972;8.568;2022-08-19T12:20:22;130.73;;;124.25;;
40058;SDS011;25763;49.972;8.568;2022-08-19T12:22:49;125.35;;;119.15;;
40058;SDS011;25763;49.972;8.568;2022-08-19T12:25:16;151.40;;;143.93;;
40058;SDS011;25763;49.972;8.568;2022-08-19T12:27:41;109.82;;;104.38;;
40058;SDS011;25763;49.972;8.568;2022-08-19T12:30:08;131.18;;;124.70;;
40058;SDS011;25763;49.972;8.568;2022-08-19T12:32:35;94.00;;;89.38;;
40058;SDS011;25763;49.972;8.568;2022-08-19T12:35:01;133.93;;;127.30;;
40058;SDS011;25763;49.972;8.568;2022-08-19T12:37:26;99.78;;;94.85;;
40058;SDS011;25763;49.972;8.568;2022-08-19T12:39:52;88.13;;;83.75;;
40058;SDS011;25763;49.972;8.568;2022-08-19T12:42:17;74.63;;;70.93;;
40058;SDS011;25763;49.972;8.568;2022-08-19T12:44:43;78.60;;;74.28;;
40058;SDS011;25763;49.972;8.568;2022-08-19T12:47:11;75.22;;;71.45;;
40058;SDS011;25763;49.972;8.568;2022-08-19T12:49:38;67.18;;;63.78;;
40058;SDS011;25763;49.972;8.568;2022-08-19T12:52:04;68.57;;;64.93;;
40058;SDS011;25763;49.972;8.568;2022-08-19T12:54:30;96.47;;;91.75;;
40058;SDS011;25763;49.972;8.568;2022-08-19T12:56:56;95.90;;;91.15;;
40058;SDS011;25763;49.972;8.568;2022-08-19T12:59:23;79.60;;;75.63;;
40058;SDS011;25763;49.972;8.568;2022-08-19T13:01:48;73.90;;;70.20;;
40058;SDS011;25763;49.972;8.568;2022-08-19T13:04:13;62.05;;;58.95;;
40058;SDS011;25763;49.972;8.568;2022-08-19T13:06:39;81.65;;;77.63;;
40058;SDS011;25763;49.972;8.568;2022-08-19T13:09:04;64.53;;;61.28;;
40058;SDS011;25763;49.972;8.568;2022-08-19T13:11:30;70.18;;;66.68;;
40058;SDS011;25763;49.972;8.568;2022-08-19T13:13:59;65.03;;;61.80;;
40058;SDS011;25763;49.972;8.568;2022-08-19T13:16:26;66.82;;;63.50;;
40058;SDS011;25763;49.972;8.568;2022-08-19T13:18:52;66.20;;;62.90;;
40058;SDS011;25763;49.972;8.568;2022-08-19T13:21:19;66.85;;;63.45;;
40058;SDS011;25763;49.972;8.568;2022-08-19T13:23:48;65.97;;;62.67;;
40058;SDS011;25763;49.972;8.568;2022-08-19T13:26:15;62.67;;;59.53;;
40058;SDS011;25763;49.972;8.568;2022-08-19T13:28:41;73.43;;;69.78;;
40058;SDS011;25763;49.972;8.568;2022-08-19T13:31:27;66.78;;;63.45;;
40058;SDS011;25763;49.972;8.568;2022-08-19T13:34:13;70.07;;;66.60;;
40058;SDS011;25763;49.972;8.568;2022-08-19T13:36:39;69.88;;;66.35;;
40058;SDS011;25763;49.972;8.568;2022-08-19T13:39:05;61.40;;;58.30;;
40058;SDS011;25763;49.972;8.568;2022-08-19T13:41:32;61.58;;;58.47;;
40058;SDS011;25763;49.972;8.568;2022-08-19T13:43:59;60.65;;;57.65;;
40058;SDS011;25763;49.972;8.568;2022-08-19T13:46:24;75.07;;;71.35;;
40058;SDS011;25763;49.972;8.568;2022-08-19T13:48:50;76.70;;;72.75;;
40058;SDS011;25763;49.972;8.568;2022-08-19T13:51:15;65.13;;;61.85;;
40058;SDS011;25763;49.972;8.568;2022-08-19T13:53:42;66.07;;;62.78;;
40058;SDS011;25763;49.972;8.568;2022-08-19T13:56:09;78.68;;;74.78;;
40058;SDS011;25763;49.972;8.568;2022-08-19T13:58:37;63.22;;;59.85;;
40058;SDS011;25763;49.972;8.568;2022-08-19T14:01:03;64.80;;;61.58;;
40058;SDS011;25763;49.972;8.568;2022-08-19T14:03:30;69.40;;;65.97;;
40058;SDS011;25763;49.972;8.568;2022-08-19T14:05:56;61.30;;;58.20;;
40058;SDS011;25763;49.972;8.568;2022-08-19T14:08:22;65.53;;;62.22;;
40058;SDS011;25763;49.972;8.568;2022-08-19T14:10:47;62.08;;;58.97;;
40058;SDS011;25763;49.972;8.568;2022-08-19T14:13:18;73.68;;;70.03;;
40058;SDS011;25763;49.972;8.568;2022-08-19T14:15:45;102.70;;;97.68;;
40058;SDS011;25763;49.972;8.568;2022-08-19T14:18:12;95.72;;;91.03;;
40058;SDS011;25763;49.972;8.568;2022-08-19T14:20:38;111.18;;;105.72;;
40058;SDS011;25763;49.972;8.568;2022-08-19T14:23:03;84.72;;;80.53;;
40058;SDS011;25763;49.972;8.568;2022-08-19T14:25:30;97.28;;;92.50;;
40058;SDS011;25763;49.972;8.568;2022-08-19T14:27:56;111.43;;;105.95;;
40058;SDS011;25763;49.972;8.568;2022-08-19T14:30:24;79.97;;;76.00;;
40058;SDS011;25763;49.972;8.568;2022-08-19T14:32:53;122.22;;;116.20;;
40058;SDS011;25763;49.972;8.568;2022-08-19T14:35:19;125.90;;;119.68;;
40058;SDS011;25763;49.972;8.568;2022-08-19T14:37:46;115.70;;;110.00;;
40058;SDS011;25763;49.972;8.568;2022-08-19T14:40:13;129.55;;;123.15;;